Time;durP1;ratioP1;P1;durP2;ratioP2;P2;SDS_P1;SDS_P2;PMS_P1;PMS_P2;Temp;Humidity;BMP_temperature;BMP_pressure;BME280_temperature;BME280_humidity;BME280_pressure;Samples;Min_cycle;Max_cycle;Signal;HPM_P1;HPM_P2
2023/09/09 00:01:50;;;;;;;1.33;1.23;;;16.00;77.20;;;;;;5029701;28;20358;-80
2023/09/09 00:04:16;;;;;;;1.90;1.05;;;15.90;57.50;;;;;;5036358;28;20092;-79
2023/09/09 00:06:42;;;;;;;2.55;1.58;;;15.90;47.90;;;;;;5024837;28;20037;-79
2023/09/09 00:09:09;;;;;;;4.90;2.22;;;15.90;49.20;;;;;;5017203;28;20025;-79
2023/09/09 00:11:35;;;;;;;0.60;0.60;;;16.00;44.00;;;;;;5032180;28;20026;-79
2023/09/09 00:14:01;;;;;;;2.00;1.63;;;16.00;26.90;;;;;;5022446;28;20045;-80
2023/09/09 00:16:34;;;;;;;2.30;2.03;;;15.90;19.10;;;;;;5021499;28;20478;-79
2023/09/09 00:19:01;;;;;;;1.38;1.25;;;15.80;22.70;;;;;;5026172;28;20036;-79
2023/09/09 00:21:27;;;;;;;5.25;1.10;;;15.80;29.70;;;;;;5036334;28;20092;-80
2023/09/09 00:23:54;;;;;;;0.85;0.50;;;15.70;44.70;;;;;;5029910;28;20404;-80
2023/09/09 00:26:20;;;;;;;1.45;1.13;;;15.60;66.10;;;;;;5023628;28;20038;-80
2023/09/09 00:28:46;;;;;;;2.83;1.38;;;15.60;90.00;;;;;;5030169;28;20028;-82
2023/09/09 00:31:13;;;;;;;1.20;1.00;;;15.50;89.10;;;;;;5030212;28;20037;-80
2023/09/09 00:33:39;;;;;;;3.03;1.13;;;15.60;95.60;;;;;;5021890;28;20037;-79
2023/09/09 00:36:06;;;;;;;2.45;1.35;;;15.50;95.70;;;;;;5016319;28;20030;-79
2023/09/09 00:38:32;;;;;;;1.45;1.30;;;15.50;95.70;;;;;;5025998;28;20044;-80
2023/09/09 00:41:17;;;;;;;2.75;1.20;;;15.50;95.50;;;;;;5034855;28;20037;-79
2023/09/09 00:43:49;;;;;;;2.83;2.10;;;15.50;93.40;;;;;;5024293;28;20487;-80
2023/09/09 00:46:17;;;;;;;1.20;0.98;;;15.50;90.10;;;;;;5035949;28;20382;-80
2023/09/09 00:48:43;;;;;;;1.65;1.38;;;15.50;98.40;;;;;;5029494;28;20049;-80
2023/09/09 00:51:11;;;;;;;2.90;1.50;;;15.60;85.80;;;;;;5020727;28;20373;-80
2023/09/09 00:53:39;;;;;;;0.88;0.88;;;15.50;58.70;;;;;;5022946;28;20028;-80
2023/09/09 00:56:06;;;;;;;1.25;1.15;;;15.50;68.40;;;;;;5027013;28;20041;-80
2023/09/09 00:58:32;;;;;;;2.63;1.60;;;15.50;63.20;;;;;;5022000;28;20028;-80
2023/09/09 01:01:03;;;;;;;0.82;0.82;;;15.60;49.50;;;;;;5037527;28;20046;-80
2023/09/09 01:03:30;;;;;;;2.92;1.10;;;15.40;27.50;;;;;;5041701;28;20124;-80
2023/09/09 01:05:57;;;;;;;1.40;1.20;;;15.30;35.10;;;;;;5032973;28;20042;-81
2023/09/09 01:08:27;;;;;;;2.17;0.70;;;15.10;67.10;;;;;;5028462;28;20375;-80
2023/09/09 01:10:55;;;;;;;0.95;0.85;;;15.10;71.90;;;;;;5030740;28;20033;-80
2023/09/09 01:13:23;;;;;;;1.48;1.35;;;15.00;79.70;;;;;;5031117;28;20408;-80
2023/09/09 01:15:49;;;;;;;0.73;0.63;;;15.10;99.60;;;;;;5019514;28;20026;-82
2023/09/09 01:18:17;;;;;;;0.63;0.63;;;15.20;99.90;;;;;;5026202;28;20034;-81
2023/09/09 01:20:50;;;;;;;1.77;0.88;;;15.20;99.90;;;;;;5030173;28;20030;-80
2023/09/09 01:23:16;;;;;;;3.90;1.48;;;15.20;96.90;;;;;;5031583;28;20033;-80
2023/09/09 01:25:43;;;;;;;0.85;0.70;;;15.20;93.90;;;;;;5029066;28;20056;-80
2023/09/09 01:28:11;;;;;;;1.45;1.30;;;15.10;89.60;;;;;;5009661;28;20260;-80
2023/09/09 01:30:37;;;;;;;1.25;0.88;;;15.10;90.40;;;;;;5032885;28;20033;-80
2023/09/09 01:33:03;;;;;;;1.08;1.05;;;15.00;93.50;;;;;;5027926;28;20044;-80
2023/09/09 01:35:29;;;;;;;2.75;0.73;;;15.10;99.90;;;;;;5030917;28;20046;-80
2023/09/09 01:37:56;;;;;;;0.47;0.47;;;15.20;99.90;;;;;;5016047;28;20036;-81
2023/09/09 01:40:22;;;;;;;2.88;1.52;;;15.10;95.90;;;;;;5031228;28;20046;-81
2023/09/09 01:42:49;;;;;;;0.82;0.82;;;14.90;90.30;;;;;;5025198;28;20389;-79
2023/09/09 01:45:16;;;;;;;1.98;1.65;;;14.80;99.90;;;;;;5046237;28;20048;-80
2023/09/09 01:47:43;;;;;;;1.90;1.20;;;14.70;99.90;;;;;;5047063;28;20038;-80
2023/09/09 01:50:10;;;;;;;1.58;1.05;;;14.60;99.90;;;;;;5038191;28;20040;-79
2023/09/09 01:52:36;;;;;;;0.65;0.63;;;14.60;99.90;;;;;;5036233;28;20037;-80
2023/09/09 01:55:02;;;;;;;2.53;1.48;;;14.60;99.90;;;;;;5039184;28;20025;-80
2023/09/09 01:57:29;;;;;;;1.73;1.42;;;14.50;99.90;;;;;;5027526;28;20033;-82
2023/09/09 01:59:56;;;;;;;1.05;1.05;;;14.50;99.90;;;;;;5026264;28;20037;-80
2023/09/09 02:02:22;;;;;;;2.97;1.25;;;14.40;99.90;;;;;;5030397;28;20046;-80
2023/09/09 02:04:49;;;;;;;1.83;0.98;;;14.40;99.90;;;;;;5026433;28;20360;-80
2023/09/09 02:07:15;;;;;;;3.10;1.67;;;14.30;99.90;;;;;;5036189;28;20038;-81
2023/09/09 02:09:41;;;;;;;1.15;1.05;;;14.40;99.90;;;;;;5031500;28;20030;-81
2023/09/09 02:12:07;;;;;;;1.17;1.08;;;14.30;99.90;;;;;;5039232;28;20351;-80
2023/09/09 02:14:34;;;;;;;1.10;0.90;;;14.40;99.90;;;;;;5013474;28;20386;-80
2023/09/09 02:17:02;;;;;;;2.45;1.10;;;14.50;99.90;;;;;;5041025;28;20052;-81
2023/09/09 02:19:28;;;;;;;0.93;0.88;;;14.60;99.90;;;;;;5025547;28;20034;-81
2023/09/09 02:21:55;;;;;;;3.75;1.60;;;14.50;99.90;;;;;;5048616;28;20041;-81
2023/09/09 02:24:21;;;;;;;1.38;1.08;;;14.40;99.90;;;;;;5025872;28;20382;-81
2023/09/09 02:26:47;;;;;;;1.30;1.17;;;14.30;99.90;;;;;;5017306;28;20042;-81
2023/09/09 02:29:13;;;;;;;4.55;1.73;;;14.40;99.90;;;;;;5038455;28;20033;-81
2023/09/09 02:31:39;;;;;;;2.75;1.50;;;14.40;99.90;;;;;;5038831;28;20454;-81
2023/09/09 02:34:06;;;;;;;0.75;0.75;;;14.50;99.90;;;;;;5033931;28;20043;-81
2023/09/09 02:36:32;;;;;;;1.60;1.08;;;14.50;99.90;;;;;;5034380;28;20044;-81
2023/09/09 02:38:58;;;;;;;1.25;1.15;;;14.50;99.90;;;;;;5032003;28;20038;-81
2023/09/09 02:41:24;;;;;;;3.05;1.15;;;14.50;99.90;;;;;;5033846;28;20033;-81
2023/09/09 02:43:50;;;;;;;2.38;1.20;;;14.50;99.90;;;;;;5020319;28;20108;-82
2023/09/09 02:46:19;;;;;;;0.63;0.60;;;14.40;99.90;;;;;;5023129;28;20037;-81
2023/09/09 02:48:45;;;;;;;1.67;1.20;;;14.50;99.90;;;;;;5026704;28;20025;-82
2023/09/09 02:51:12;;;;;;;0.50;0.50;;;14.50;99.90;;;;;;5032574;28;20025;-81
2023/09/09 02:53:38;;;;;;;1.95;1.73;;;14.30;99.90;;;;;;5038855;28;20040;-81
2023/09/09 02:56:04;;;;;;;2.60;1.58;;;14.20;99.90;;;;;;5036068;28;20052;-80
2023/09/09 02:58:30;;;;;;;1.83;1.17;;;14.30;99.90;;;;;;5030497;28;20029;-80
2023/09/09 03:01:04;;;;;;;2.13;1.42;;;14.30;99.90;;;;;;5025730;28;20075;-81
2023/09/09 03:03:31;;;;;;;2.30;2.13;;;14.20;99.90;;;;;;5051731;28;20052;-80
2023/09/09 03:05:59;;;;;;;1.55;1.38;;;14.10;99.90;;;;;;5026997;28;20430;-81
2023/09/09 03:08:25;;;;;;;1.55;1.13;;;14.00;99.90;;;;;;5019322;28;20439;-81
2023/09/09 03:10:55;;;;;;;1.08;0.73;;;13.90;99.90;;;;;;5022954;28;20418;-80
2023/09/09 03:13:21;;;;;;;1.40;1.30;;;13.80;99.90;;;;;;5040623;28;20033;-80
2023/09/09 03:15:47;;;;;;;1.92;1.27;;;14.00;99.90;;;;;;5039250;28;20037;-80
2023/09/09 03:18:13;;;;;;;1.60;0.93;;;14.00;99.90;;;;;;5031472;28;20374;-80
2023/09/09 03:20:40;;;;;;;1.30;1.20;;;14.10;99.90;;;;;;5038329;28;20041;-80
2023/09/09 03:23:06;;;;;;;2.33;0.82;;;14.10;99.90;;;;;;5033685;28;20045;-80
2023/09/09 03:25:33;;;;;;;2.15;1.40;;;14.00;99.90;;;;;;5024821;28;20391;-80
2023/09/09 03:27:59;;;;;;;0.93;0.90;;;14.00;99.90;;;;;;5022707;28;20026;-80
2023/09/09 03:30:26;;;;;;;2.13;1.15;;;14.00;99.90;;;;;;5031686;28;20049;-80
2023/09/09 03:32:52;;;;;;;1.27;1.17;;;14.10;99.90;;;;;;5021126;28;20035;-80
2023/09/09 03:35:18;;;;;;;0.68;0.65;;;14.10;99.90;;;;;;5032154;28;20034;-80
2023/09/09 03:37:44;;;;;;;1.23;1.08;;;14.10;99.90;;;;;;5036239;28;20116;-80
2023/09/09 03:40:11;;;;;;;2.25;1.13;;;14.00;99.90;;;;;;5015543;28;20108;-80
2023/09/09 03:42:39;;;;;;;1.75;1.48;;;13.90;99.90;;;;;;5032984;28;20037;-80
2023/09/09 03:45:06;;;;;;;1.67;1.30;;;14.00;99.90;;;;;;5030747;28;20029;-80
2023/09/09 03:47:32;;;;;;;2.70;2.15;;;14.00;99.90;;;;;;5030330;28;20049;-80
2023/09/09 03:49:59;;;;;;;1.20;1.02;;;13.90;99.90;;;;;;5031939;28;20466;-80
2023/09/09 03:52:25;;;;;;;1.33;1.10;;;13.90;99.90;;;;;;5027031;28;20038;-80
2023/09/09 03:54:51;;;;;;;1.92;1.73;;;13.90;99.90;;;;;;5038016;28;20041;-79
2023/09/09 03:57:17;;;;;;;1.38;1.20;;;13.70;99.90;;;;;;5039934;28;20045;-80
2023/09/09 03:59:46;;;;;;;1.67;1.58;;;13.70;99.90;;;;;;5023197;28;20391;-80
2023/09/09 04:02:12;;;;;;;4.00;2.20;;;13.60;99.90;;;;;;5027986;28;20067;-80
2023/09/09 04:04:39;;;;;;;2.65;1.50;;;13.50;99.90;;;;;;5031798;28;20042;-79
2023/09/09 04:07:05;;;;;;;1.20;1.10;;;13.50;99.90;;;;;;5030711;28;20447;-79
2023/09/09 04:09:40;;;;;;;2.47;1.52;;;13.50;99.90;;;;;;5023105;28;20028;-79
2023/09/09 04:12:07;;;;;;;5.38;2.05;;;13.50;99.90;;;;;;5041043;28;20033;-80
2023/09/09 04:14:39;;;;;;;1.75;1.65;;;13.50;99.90;;;;;;5024246;28;20033;-80
2023/09/09 04:17:07;;;;;;;5.32;2.08;;;13.40;99.90;;;;;;5026949;28;20049;-80
2023/09/09 04:19:34;;;;;;;0.98;0.80;;;13.30;99.90;;;;;;5041870;28;20044;-79
2023/09/09 04:22:00;;;;;;;0.65;0.63;;;13.20;99.90;;;;;;5033233;28;20060;-80
2023/09/09 04:24:26;;;;;;;1.75;1.65;;;13.20;99.90;;;;;;5032022;28;20037;-80
2023/09/09 04:26:53;;;;;;;1.55;1.25;;;13.20;99.90;;;;;;5038556;28;20111;-79
2023/09/09 04:29:22;;;;;;;1.67;1.58;;;13.20;99.90;;;;;;5049791;28;20040;-79
2023/09/09 04:31:49;;;;;;;3.35;1.25;;;13.30;99.90;;;;;;5027478;28;20103;-82
2023/09/09 04:34:15;;;;;;;1.80;1.30;;;13.30;99.90;;;;;;5022789;28;20038;-80
2023/09/09 04:36:42;;;;;;;2.53;1.55;;;13.20;99.90;;;;;;5020348;28;20040;-81
2023/09/09 04:39:08;;;;;;;1.50;1.20;;;13.20;99.90;;;;;;5042093;28;20037;-80
2023/09/09 04:41:35;;;;;;;2.92;1.90;;;13.10;99.90;;;;;;5035189;28;20045;-80
2023/09/09 04:44:02;;;;;;;5.25;1.08;;;13.20;99.90;;;;;;5031043;28;20033;-80
2023/09/09 04:46:28;;;;;;;2.53;0.55;;;13.30;99.90;;;;;;5035455;28;20045;-80
2023/09/09 04:48:54;;;;;;;1.13;1.02;;;13.40;99.90;;;;;;5034787;28;20053;-80
2023/09/09 04:51:20;;;;;;;2.10;1.38;;;13.40;99.90;;;;;;5037082;28;20041;-80
2023/09/09 04:53:46;;;;;;;0.45;0.45;;;13.30;99.90;;;;;;5038148;28;20040;-80
2023/09/09 04:56:12;;;;;;;1.60;1.17;;;13.20;99.90;;;;;;5033163;28;20049;-80
2023/09/09 04:58:39;;;;;;;1.77;1.67;;;13.20;99.90;;;;;;5020646;28;20032;-80
2023/09/09 05:01:05;;;;;;;1.67;1.33;;;13.10;99.90;;;;;;5040239;28;20048;-80
2023/09/09 05:03:31;;;;;;;2.30;2.10;;;13.10;99.90;;;;;;5039537;28;20040;-80
2023/09/09 05:05:58;;;;;;;0.70;0.70;;;13.10;99.90;;;;;;5033412;28;20036;-80
2023/09/09 05:08:24;;;;;;;3.67;1.70;;;13.10;99.90;;;;;;5023840;28;20040;-80
2023/09/09 05:10:51;;;;;;;1.00;1.00;;;13.20;99.90;;;;;;5033526;28;20044;-80
2023/09/09 05:13:17;;;;;;;1.23;1.02;;;13.30;99.90;;;;;;5028968;28;20467;-80
2023/09/09 05:15:43;;;;;;;1.95;1.50;;;13.40;99.90;;;;;;5030732;28;20476;-80
2023/09/09 05:18:10;;;;;;;1.35;1.27;;;13.50;99.90;;;;;;5014414;28;20030;-80
2023/09/09 05:20:36;;;;;;;2.55;1.33;;;13.60;99.90;;;;;;5043108;28;20041;-80
2023/09/09 05:23:02;;;;;;;5.68;1.70;;;13.60;87.30;;;;;;5042927;28;20048;-80
2023/09/09 05:25:29;;;;;;;3.13;1.00;;;13.60;80.40;;;;;;5030045;28;20022;-80
2023/09/09 05:27:55;;;;;;;7.32;3.08;;;13.50;72.70;;;;;;5030111;28;20109;-80
2023/09/09 05:30:21;;;;;;;1.38;1.05;;;13.50;66.00;;;;;;5037494;28;20045;-80
2023/09/09 05:32:48;;;;;;;1.38;0.82;;;13.60;65.10;;;;;;5033766;28;20049;-80
2023/09/09 05:35:14;;;;;;;2.15;1.67;;;13.60;54.00;;;;;;5019501;28;20399;-80
2023/09/09 05:37:42;;;;;;;1.33;1.25;;;13.80;56.20;;;;;;5029554;28;20033;-80
2023/09/09 05:40:09;;;;;;;2.22;1.25;;;14.50;62.00;;;;;;5029264;28;20105;-80
2023/09/09 05:42:35;;;;;;;1.08;0.82;;;15.60;1.00;;;;;;5019595;28;20038;-80
2023/09/09 05:45:03;;;;;;;2.53;2.33;;;17.00;99.90;;;;;;5025764;28;20033;-81
2023/09/09 05:47:30;;;;;;;1.83;1.05;;;18.00;32.00;;;;;;5028012;28;20049;-80
2023/09/09 05:49:56;;;;;;;1.42;1.33;;;18.90;1.00;;;;;;5030503;28;20064;-81
2023/09/09 05:52:22;;;;;;;1.48;1.10;;;19.40;99.90;;;;;;5037164;28;20048;-81
2023/09/09 05:54:50;;;;;;;2.35;1.95;;;20.00;99.90;;;;;;5035568;28;20040;-80
2023/09/09 05:57:16;;;;;;;3.42;2.38;;;20.60;99.90;;;;;;5043839;28;20057;-81
2023/09/09 05:59:42;;;;;;;0.75;0.75;;;21.30;99.90;;;;;;5006332;28;20038;-81
2023/09/09 06:02:11;;;;;;;1.40;1.10;;;21.60;99.90;;;;;;5033743;28;20052;-81
2023/09/09 06:04:37;;;;;;;1.15;1.08;;;21.60;99.90;;;;;;5038270;28;20044;-81
2023/09/09 06:07:04;;;;;;;3.95;1.17;;;21.70;99.90;;;;;;5028802;28;20056;-82
2023/09/09 06:09:30;;;;;;;1.65;1.02;;;22.20;99.90;;;;;;5025230;28;20060;-81
2023/09/09 06:11:56;;;;;;;1.40;1.30;;;22.70;99.90;;;;;;5033457;28;20044;-81
2023/09/09 06:14:23;;;;;;;2.30;1.50;;;23.00;99.90;;;;;;5029891;28;20048;-81
2023/09/09 06:16:49;;;;;;;6.25;2.20;;;23.10;98.40;;;;;;5021824;28;20038;-81
2023/09/09 06:19:15;;;;;;;17.00;2.97;;;23.10;99.90;;;;;;5022622;28;20056;-81
2023/09/09 06:21:41;;;;;;;1.35;0.93;;;23.30;99.90;;;;;;5030988;28;20057;-81
2023/09/09 06:24:08;;;;;;;3.60;0.85;;;23.80;94.50;;;;;;5022132;28;20036;-81
2023/09/09 06:26:35;;;;;;;2.50;1.15;;;23.60;89.50;;;;;;5026608;28;20065;-80
2023/09/09 06:29:01;;;;;;;2.83;0.95;;;23.90;99.90;;;;;;5039815;28;20041;-82
2023/09/09 06:31:28;;;;;;;1.90;1.45;;;24.00;90.00;;;;;;5035002;28;20042;-80
2023/09/09 06:33:54;;;;;;;1.10;0.50;;;23.70;99.90;;;;;;5020982;28;20245;-81
2023/09/09 06:36:21;;;;;;;1.80;1.27;;;23.60;99.90;;;;;;5030509;28;20386;-80
2023/09/09 06:38:48;;;;;;;0.50;0.50;;;23.30;99.90;;;;;;5049955;28;20378;-80
2023/09/09 06:41:15;;;;;;;1.10;0.98;;;22.60;99.90;;;;;;5031475;28;20052;-81
2023/09/09 06:43:42;;;;;;;0.82;0.82;;;22.10;99.90;;;;;;5025577;28;20037;-81
2023/09/09 06:46:08;;;;;;;2.05;1.48;;;21.70;99.90;;;;;;5033747;28;20044;-81
2023/09/09 06:48:35;;;;;;;0.90;0.88;;;21.60;99.90;;;;;;5036528;28;20033;-80
2023/09/09 06:51:02;;;;;;;1.67;1.58;;;21.70;99.90;;;;;;5031183;28;20025;-81
2023/09/09 06:53:28;;;;;;;3.00;1.42;;;21.20;99.90;;;;;;5028990;28;20026;-81
2023/09/09 06:55:55;;;;;;;0.88;0.60;;;21.20;99.90;;;;;;5035505;28;20033;-80
2023/09/09 06:58:21;;;;;;;1.08;0.98;;;21.10;99.90;;;;;;5033728;28;20025;-81
2023/09/09 07:00:51;;;;;;;1.88;1.25;;;20.60;1.00;;;;;;5021810;28;20046;-81
2023/09/09 07:03:19;;;;;;;2.13;1.92;;;21.20;99.90;;;;;;5031256;28;20033;-81
2023/09/09 07:05:45;;;;;;;1.52;1.42;;;21.40;99.90;;;;;;5028995;28;20025;-81
2023/09/09 07:08:11;;;;;;;1.90;1.42;;;21.20;99.90;;;;;;5024221;28;20037;-80
2023/09/09 07:10:38;;;;;;;1.17;1.08;;;21.10;99.90;;;;;;5020418;28;20048;-81
2023/09/09 07:13:04;;;;;;;1.50;1.40;;;20.90;99.90;;;;;;5039455;28;20029;-81
2023/09/09 07:15:33;;;;;;;2.28;1.85;;;20.80;1.00;;;;;;5036205;28;20033;-81
2023/09/09 07:17:59;;;;;;;2.08;0.85;;;20.60;1.00;;;;;;5025851;28;20040;-80
2023/09/09 07:20:25;;;;;;;4.28;1.45;;;21.10;99.90;;;;;;5037024;28;20473;-81
2023/09/09 07:22:52;;;;;;;1.15;1.05;;;20.80;1.00;;;;;;5031868;28;20025;-81
2023/09/09 07:25:18;;;;;;;2.30;1.95;;;21.50;99.90;;;;;;5023393;28;20021;-81
2023/09/09 07:27:44;;;;;;;1.25;1.13;;;22.10;99.90;;;;;;5019830;28;20037;-81
2023/09/09 07:30:10;;;;;;;1.92;1.25;;;22.40;99.90;;;;;;5030771;28;20440;-81
2023/09/09 07:32:36;;;;;;;0.55;0.47;;;22.10;99.90;;;;;;5021230;28;20382;-81
2023/09/09 07:35:03;;;;;;;13.88;2.05;;;21.90;99.90;;;;;;5030833;28;20045;-81
2023/09/09 07:37:30;;;;;;;3.13;1.40;;;22.50;99.90;;;;;;5035307;28;20419;-80
2023/09/09 07:40:00;;;;;;;1.10;1.00;;;22.10;99.90;;;;;;5037036;28;20026;-81
2023/09/09 07:42:26;;;;;;;;;;;22.20;99.90;;;;;;5033799;28;20033;-81
2023/09/09 07:44:53;;;;;;;3.65;0.77;;;22.30;99.90;;;;;;5023707;28;20377;-81
2023/09/09 07:47:20;;;;;;;3.20;1.92;;;23.00;99.90;;;;;;5032719;28;20029;-81
2023/09/09 07:49:47;;;;;;;2.15;1.27;;;23.00;99.90;;;;;;5027595;28;20033;-80
2023/09/09 07:52:13;;;;;;;2.50;1.67;;;22.30;99.90;;;;;;5017559;28;20056;-81
2023/09/09 07:54:39;;;;;;;1.90;1.17;;;22.10;99.90;;;;;;5023225;28;20346;-81
2023/09/09 07:57:06;;;;;;;2.25;1.58;;;21.90;99.90;;;;;;5038885;28;20049;-82
2023/09/09 07:59:32;;;;;;;1.40;1.13;;;21.90;99.90;;;;;;5032124;28;20042;-81
2023/09/09 08:01:58;;;;;;;1.63;1.23;;;22.60;99.90;;;;;;5026862;28;20041;-80
2023/09/09 08:04:24;;;;;;;1.42;0.95;;;22.40;99.90;;;;;;5032135;28;20029;-80
2023/09/09 08:06:52;;;;;;;1.45;1.00;;;22.00;99.90;;;;;;5026971;28;20045;-82
2023/09/09 08:09:20;;;;;;;2.25;0.98;;;22.50;99.90;;;;;;5023267;28;20025;-81
2023/09/09 08:11:46;;;;;;;0.52;0.52;;;23.10;99.90;;;;;;5026559;28;20044;-81
2023/09/09 08:14:13;;;;;;;3.10;1.42;;;23.60;99.90;;;;;;5022556;28;20474;-81
2023/09/09 08:16:41;;;;;;;1.25;0.98;;;23.60;99.90;;;;;;5021560;28;20038;-81
2023/09/09 08:19:07;;;;;;;0.85;0.63;;;24.40;99.90;;;;;;5024754;28;20029;-84
2023/09/09 08:21:33;;;;;;;0.70;0.47;;;24.90;99.90;;;;;;5034753;28;20029;-79
2023/09/09 08:24:00;;;;;;;1.73;1.27;;;23.80;99.90;;;;;;5035745;28;20034;-81
2023/09/09 08:26:28;;;;;;;4.53;1.42;;;23.50;99.90;;;;;;5024922;28;20359;-82
2023/09/09 08:28:54;;;;;;;5.97;1.73;;;24.40;99.90;;;;;;5027820;28;20033;-80
2023/09/09 08:31:21;;;;;;;1.15;0.82;;;24.30;99.90;;;;;;5029184;28;20029;-81
2023/09/09 08:33:47;;;;;;;1.35;0.73;;;23.70;99.90;;;;;;5024032;28;20025;-80
2023/09/09 08:36:15;;;;;;;0.38;0.38;;;23.50;99.90;;;;;;5015414;28;20042;-81
2023/09/09 08:38:41;;;;;;;1.50;1.15;;;24.30;99.90;;;;;;5022951;28;20045;-81
2023/09/09 08:41:11;;;;;;;2.97;1.42;;;24.80;98.00;;;;;;5036870;28;20037;-83
2023/09/09 08:43:55;;;;;;;3.00;0.93;;;24.70;95.80;;;;;;5029115;28;20052;-81
2023/09/09 08:46:21;;;;;;;2.28;1.05;;;25.20;55.20;;;;;;5027978;28;20029;-82
2023/09/09 08:48:52;;;;;;;1.20;1.00;;;25.30;56.40;;;;;;5031082;28;20034;-82
2023/09/09 08:51:22;;;;;;;0.65;0.65;;;25.90;45.10;;;;;;5023320;28;20371;-82
2023/09/09 08:53:49;;;;;;;1.15;1.05;;;26.80;1.00;;;;;;5020811;28;20030;-82
2023/09/09 08:56:17;;;;;;;1.40;1.02;;;27.40;1.00;;;;;;5028521;28;20032;-82
2023/09/09 08:58:45;;;;;;;1.75;1.13;;;27.80;1.00;;;;;;5019423;28;20029;-81
2023/09/09 09:01:13;;;;;;;0.63;0.63;;;27.70;1.00;;;;;;5040566;28;20497;-81
2023/09/09 09:03:40;;;;;;;0.50;0.50;;;27.10;1.00;;;;;;5034693;28;20050;-81
2023/09/09 09:06:06;;;;;;;1.10;1.00;;;27.10;1.00;;;;;;5033951;28;20028;-81
2023/09/09 09:08:33;;;;;;;7.70;2.50;;;26.60;1.00;;;;;;5026639;28;20374;-81
2023/09/09 09:11:03;;;;;;;1.27;0.90;;;26.80;1.00;;;;;;5025855;28;20025;-81
2023/09/09 09:13:33;;;;;;;1.65;1.55;;;26.10;11.00;;;;;;5028915;28;20033;-82
2023/09/09 09:16:00;;;;;;;1.83;1.27;;;26.30;1.00;;;;;;5027648;28;20409;-81
2023/09/09 09:18:27;;;;;;;1.52;0.70;;;26.20;9.70;;;;;;5018911;28;20463;-82
2023/09/09 09:20:53;;;;;;;1.58;1.48;;;26.30;6.20;;;;;;5039308;28;20030;-82
2023/09/09 09:23:20;;;;;;;2.22;2.03;;;26.60;12.50;;;;;;5032808;28;20046;-83
2023/09/09 09:25:49;;;;;;;1.27;1.17;;;27.20;1.00;;;;;;5036782;28;20049;-82
2023/09/09 09:28:16;;;;;;;0.80;0.75;;;27.60;1.00;;;;;;5028395;28;20374;-82
2023/09/09 09:30:42;;;;;;;1.77;1.23;;;27.50;1.00;;;;;;5035005;28;20034;-83
2023/09/09 09:33:09;;;;;;;0.57;0.57;;;27.30;1.00;;;;;;5026581;28;20022;-81
2023/09/09 09:35:36;;;;;;;2.92;1.48;;;26.90;1.00;;;;;;5018999;28;20053;-82
2023/09/09 09:38:06;;;;;;;1.90;1.20;;;25.90;1.50;;;;;;5039957;28;20041;-82
2023/09/09 09:40:33;;;;;;;3.95;1.13;;;25.30;12.40;;;;;;5029999;28;20497;-81
2023/09/09 09:42:59;;;;;;;1.50;1.40;;;25.30;26.00;;;;;;5019398;28;20041;-81
2023/09/09 09:45:29;;;;;;;1.80;0.57;;;25.20;19.30;;;;;;5032278;28;20033;-81
2023/09/09 09:47:58;;;;;;;2.58;2.03;;;25.20;27.80;;;;;;5036082;28;20053;-82
2023/09/09 09:50:30;;;;;;;3.78;2.50;;;25.60;42.90;;;;;;5029242;28;20033;-81
2023/09/09 09:53:01;;;;;;;4.10;1.05;;;26.30;21.50;;;;;;5027086;28;20033;-82
2023/09/09 09:55:28;;;;;;;2.80;1.38;;;26.70;1.00;;;;;;5032386;28;20426;-82
2023/09/09 09:57:57;;;;;;;1.23;1.13;;;27.10;1.00;;;;;;5031148;28;20053;-82
2023/09/09 10:00:25;;;;;;;2.78;1.38;;;27.30;1.00;;;;;;5022560;28;20042;-82
2023/09/09 10:02:56;;;;;;;1.67;0.80;;;27.60;1.00;;;;;;5026999;28;20042;-82
2023/09/09 10:05:25;;;;;;;3.22;1.95;;;27.50;1.00;;;;;;5026445;28;20048;-82
2023/09/09 10:08:21;;;;;;;1.38;1.08;;;27.20;1.00;;;;;;5036112;28;20041;-81
2023/09/09 10:11:01;;;;;;;1.60;1.50;;;26.40;1.00;;;;;;5031623;28;20026;-81
2023/09/09 10:13:45;;;;;;;5.30;2.05;;;26.20;6.40;;;;;;5026837;28;20118;-81
2023/09/09 10:16:12;;;;;;;1.00;0.95;;;26.40;1.00;;;;;;5031135;28;20044;-81
2023/09/09 10:18:40;;;;;;;1.83;1.35;;;26.50;1.00;;;;;;5022533;28;20471;-81
2023/09/09 10:21:08;;;;;;;1.33;1.23;;;26.70;1.00;;;;;;5034306;28;20036;-81
2023/09/09 10:23:35;;;;;;;4.78;1.20;;;26.70;1.00;;;;;;5027568;28;20040;-81
2023/09/09 10:26:03;;;;;;;0.90;0.90;;;26.50;1.00;;;;;;5023247;28;20030;-81
2023/09/09 10:28:29;;;;;;;1.48;1.27;;;26.50;1.00;;;;;;5025876;28;20037;-81
2023/09/09 10:30:57;;;;;;;0.80;0.80;;;26.70;1.00;;;;;;5043991;28;20063;-82
2023/09/09 10:33:24;;;;;;;1.88;1.20;;;27.00;1.00;;;;;;5034194;28;20041;-82
2023/09/09 10:35:51;;;;;;;1.20;1.10;;;27.30;1.00;;;;;;5027976;28;20045;-81
2023/09/09 10:38:18;;;;;;;2.25;1.48;;;26.90;1.00;;;;;;5035392;28;20026;-82
2023/09/09 10:40:49;;;;;;;1.52;1.23;;;26.90;1.00;;;;;;5034447;28;20040;-82
2023/09/09 10:43:15;;;;;;;0.68;0.68;;;27.00;1.00;;;;;;5027496;28;20037;-83
2023/09/09 10:45:43;;;;;;;1.25;1.05;;;27.30;1.00;;;;;;5022537;28;20037;-83
2023/09/09 10:48:13;;;;;;;1.52;1.42;;;27.70;1.00;;;;;;5026876;28;20482;-83
2023/09/09 10:50:46;;;;;;;1.60;1.27;;;27.90;1.00;;;;;;5032596;28;20029;-87
2023/09/09 10:53:18;;;;;;;4.03;1.95;;;27.70;1.00;;;;;;5035790;28;20046;-83
2023/09/09 10:55:46;;;;;;;0.95;0.90;;;27.60;1.00;;;;;;5042150;28;20390;-82
2023/09/09 10:58:16;;;;;;;1.13;1.08;;;27.70;1.00;;;;;;5033811;28;20052;-82
2023/09/09 11:00:45;;;;;;;0.73;0.50;;;27.80;1.00;;;;;;5030187;28;20049;-82
2023/09/09 11:03:27;;;;;;;2.53;2.10;;;28.00;1.00;;;;;;5029300;28;20048;-82
2023/09/09 11:06:05;;;;;;;0.95;0.88;;;28.00;1.00;;;;;;5041701;28;20033;-83
2023/09/09 11:08:33;;;;;;;1.17;1.05;;;28.10;1.00;;;;;;5025417;28;20060;-81
2023/09/09 11:11:13;;;;;;;1.02;1.02;;;28.10;1.00;;;;;;5019528;28;20041;-82
2023/09/09 11:13:51;;;;;;;7.28;2.05;;;28.00;1.00;;;;;;5035691;28;20040;-81
2023/09/09 11:16:33;;;;;;;0.77;0.73;;;28.10;1.00;;;;;;5036673;28;20454;-82
2023/09/09 11:19:13;;;;;;;1.13;1.00;;;28.30;1.00;;;;;;5031526;28;20506;-82
2023/09/09 11:21:41;;;;;;;2.08;1.23;;;28.30;1.00;;;;;;5037962;28;20471;-81
2023/09/09 11:24:08;;;;;;;1.15;0.98;;;28.20;1.00;;;;;;5035128;28;20100;-82
2023/09/09 11:26:38;;;;;;;1.25;0.95;;;28.20;1.00;;;;;;5020911;28;20026;-83
2023/09/09 11:29:06;;;;;;;1.25;0.73;;;28.30;1.00;;;;;;5025774;28;20392;-82
2023/09/09 11:31:32;;;;;;;5.10;1.02;;;28.50;1.00;;;;;;5035437;28;20036;-80
2023/09/09 11:33:59;;;;;;;2.25;1.35;;;28.40;1.00;;;;;;5034259;28;20372;-80
2023/09/09 11:36:26;;;;;;;0.40;0.40;;;28.30;1.00;;;;;;5030928;28;20037;-81
2023/09/09 11:38:56;;;;;;;2.90;1.08;;;28.40;1.00;;;;;;5041674;28;20036;-81
2023/09/09 11:41:23;;;;;;;0.52;0.52;;;28.50;1.00;;;;;;5032164;28;20025;-83
2023/09/09 11:44:02;;;;;;;1.15;1.05;;;28.70;1.00;;;;;;5028947;28;20026;-82
2023/09/09 11:46:42;;;;;;;1.05;0.82;;;28.80;1.00;;;;;;5021337;28;20026;-81
2023/09/09 11:49:09;;;;;;;1.77;0.52;;;29.10;1.00;;;;;;5030946;28;20042;-86
2023/09/09 11:51:36;;;;;;;1.08;0.90;;;28.80;1.00;;;;;;5018466;28;20323;-82
2023/09/09 11:54:03;;;;;;;0.73;0.73;;;28.90;1.00;;;;;;5019986;28;20044;-82
2023/09/09 11:56:32;;;;;;;0.73;0.73;;;29.00;1.00;;;;;;5036493;28;20039;-82
2023/09/09 11:59:05;;;;;;;0.63;0.63;;;28.90;1.00;;;;;;5026717;28;20037;-82
2023/09/09 12:01:40;;;;;;;0.65;0.65;;;29.00;1.00;;;;;;5029884;28;20450;-82
2023/09/09 12:04:06;;;;;;;0.75;0.68;;;29.10;1.00;;;;;;5039073;28;20045;-83
2023/09/09 12:06:33;;;;;;;1.25;1.15;;;29.10;1.00;;;;;;5028717;28;20025;-82
2023/09/09 12:09:00;;;;;;;0.43;0.32;;;29.20;1.00;;;;;;5023156;28;20040;-82
2023/09/09 12:11:26;;;;;;;0.30;0.30;;;29.40;1.00;;;;;;5028320;28;20450;-83
2023/09/09 12:13:52;;;;;;;1.23;0.95;;;29.50;1.00;;;;;;5026723;28;20033;-82
2023/09/09 12:16:19;;;;;;;2.47;1.05;;;29.50;1.00;;;;;;5028585;28;20435;-83
2023/09/09 12:18:52;;;;;;;1.17;1.08;;;29.30;1.00;;;;;;5026126;28;20041;-83
2023/09/09 12:21:18;;;;;;;1.55;0.90;;;29.50;1.00;;;;;;5039270;28;20506;-83
2023/09/09 12:23:46;;;;;;;0.55;0.43;;;29.60;1.00;;;;;;5032517;28;20025;-83
2023/09/09 12:26:17;;;;;;;1.05;0.77;;;29.80;1.00;;;;;;5025930;28;20041;-83
2023/09/09 12:29:10;;;;;;;0.30;0.30;;;29.80;1.00;;;;;;5027441;28;20029;-83
2023/09/09 12:31:57;;;;;;;1.27;0.85;;;29.80;1.00;;;;;;5012609;28;20378;-84
2023/09/09 12:34:24;;;;;;;0.57;0.57;;;30.00;1.00;;;;;;5013856;28;20036;-82
2023/09/09 12:36:56;;;;;;;1.60;0.63;;;29.70;1.00;;;;;;5006269;28;20040;-84
2023/09/09 12:39:25;;;;;;;2.05;0.80;;;29.60;1.00;;;;;;5025428;28;20378;-83
2023/09/09 12:42:05;;;;;;;2.60;0.60;;;29.50;1.00;;;;;;5035441;28;20034;-80
2023/09/09 12:44:32;;;;;;;0.38;0.38;;;29.50;1.00;;;;;;5028908;28;20029;-83
2023/09/09 12:47:02;;;;;;;0.50;0.50;;;29.60;1.00;;;;;;5033758;28;20357;-86
2023/09/09 12:49:28;;;;;;;0.30;0.30;;;29.70;1.00;;;;;;5035697;28;20028;-85
2023/09/09 12:51:54;;;;;;;1.42;0.82;;;29.60;1.00;;;;;;5025648;28;20439;-82
2023/09/09 12:54:20;;;;;;;0.45;0.45;;;29.60;1.00;;;;;;5024845;28;20081;-82